Time;durP1;ratioP1;P1;durP2;ratioP2;P2;SDS_P1;SDS_P2;PMS_P1;PMS_P2;Temp;Humidity;BMP_temperature;BMP_pressure;BME280_temperature;BME280_humidity;BME280_pressure;Samples;Min_cycle;Max_cycle;Signal;HPM_P1;HPM_P2
2023/09/25 00:03:27;;;;;;;8.40;1.90;;;;;;;13.87;92.27;101203.31;8343146;28;20112;-87
2023/09/25 00:07:28;;;;;;;2.75;1.33;;;;;;;13.70;92.17;101175.00;8344452;28;20043;-86
2023/09/25 00:11:28;;;;;;;3.50;1.63;;;;;;;13.71;92.57;101171.28;8305105;28;20044;-88
2023/09/25 00:15:29;;;;;;;2.58;1.60;;;;;;;13.74;93.38;101192.72;8323131;28;20037;-86
2023/09/25 00:19:29;;;;;;;4.28;1.90;;;;;;;13.47;93.97;101160.84;8333477;28;20868;-86
2023/09/25 00:23:30;;;;;;;2.42;1.50;;;;;;;13.64;93.97;101178.28;8336354;28;20119;-88
2023/09/25 00:27:31;;;;;;;3.67;1.55;;;;;;;13.69;94.35;101186.84;8339560;28;20032;-87
2023/09/25 00:31:32;;;;;;;3.30;1.35;;;;;;;13.70;94.25;101178.56;8366165;28;20042;-88
2023/09/25 00:35:33;;;;;;;3.70;1.70;;;;;;;13.75;94.10;101186.28;8374812;28;20049;-88
2023/09/25 00:39:33;;;;;;;2.53;1.65;;;;;;;13.66;93.43;101176.28;8357792;28;20072;-84
2023/09/25 00:43:34;;;;;;;4.10;2.20;;;;;;;13.66;92.60;101173.56;8326296;28;20055;-86
2023/09/25 00:47:35;;;;;;;3.85;1.48;;;;;;;13.73;92.99;101191.03;8298361;28;20029;-85
2023/09/25 00:51:36;;;;;;;2.70;1.45;;;;;;;13.51;93.44;101175.03;8323704;28;20049;-87
2023/09/25 00:55:37;;;;;;;2.70;1.40;;;;;;;13.33;94.13;101158.56;8325321;28;20150;-88
2023/09/25 00:59:40;;;;;;;4.45;1.60;;;;;;;13.30;94.05;101177.84;8326000;28;20037;-85
2023/09/25 01:03:40;;;;;;;3.17;1.58;;;;;;;13.18;94.36;101170.00;8343608;28;20036;-85
2023/09/25 01:07:44;;;;;;;2.92;1.55;;;;;;;13.31;94.24;101204.03;8347487;28;20039;-84
2023/09/25 01:11:47;;;;;;;4.07;1.88;;;;;;;13.25;94.79;101195.56;8353709;28;20034;-85
2023/09/25 01:15:48;;;;;;;2.50;1.45;;;;;;;13.40;95.19;101191.44;8321381;28;20124;-85
2023/09/25 01:19:49;;;;;;;2.97;1.88;;;;;;;13.38;94.75;101182.56;8321084;28;20036;-85
2023/09/25 01:23:49;;;;;;;2.85;1.40;;;;;;;13.38;94.30;101196.16;8300319;28;20895;-85
2023/09/25 01:27:50;;;;;;;2.33;1.38;;;;;;;13.32;94.16;101188.56;8298994;28;20124;-85
2023/09/25 01:31:50;;;;;;;3.47;1.50;;;;;;;13.29;93.76;101178.00;8325565;28;20041;-85
2023/09/25 01:35:51;;;;;;;3.40;1.58;;;;;;;13.31;93.88;101184.16;8288797;28;20533;-85
2023/09/25 01:39:52;;;;;;;2.08;1.65;;;;;;;13.40;93.52;101188.72;8344189;28;20179;-85
2023/09/25 01:43:52;;;;;;;3.38;1.40;;;;;;;13.31;92.26;101162.41;8348135;28;20036;-85
2023/09/25 01:47:53;;;;;;;3.45;1.70;;;;;;;13.46;92.23;101208.03;8323365;28;20183;-85
2023/09/25 01:51:53;;;;;;;3.55;2.10;;;;;;;13.31;92.41;101195.00;8335787;28;20033;-86
2023/09/25 01:55:54;;;;;;;2.90;1.20;;;;;;;13.16;92.74;101178.28;8314894;28;20037;-85
2023/09/25 01:59:55;;;;;;;2.67;1.52;;;;;;;13.36;92.12;101214.47;8329322;28;20045;-85
2023/09/25 02:03:55;;;;;;;2.45;1.35;;;;;;;13.16;92.21;101174.69;8308837;28;20044;-85
2023/09/25 02:07:56;;;;;;;3.53;1.40;;;;;;;13.35;90.69;101205.44;8292877;28;20771;-85
2023/09/25 02:11:56;;;;;;;3.90;1.48;;;;;;;13.26;91.31;101208.13;8308873;28;20037;-88
2023/09/25 02:15:57;;;;;;;2.30;1.20;;;;;;;13.21;91.29;101218.59;8346179;28;20119;-87
2023/09/25 02:20:12;;;;;;;3.45;1.58;;;;;;;12.86;93.24;101220.88;8357882;28;20762;-88
2023/09/25 02:24:13;;;;;;;3.33;1.40;;;;;;;12.27;95.42;101165.69;8390457;28;20041;-87
2023/09/25 02:28:14;;;;;;;3.90;1.98;;;;;;;12.26;95.34;101156.69;8349325;28;20047;-88
2023/09/25 02:32:14;;;;;;;4.68;1.73;;;;;;;12.75;96.59;101218.28;8373170;28;20057;-87
2023/09/25 02:36:16;;;;;;;3.53;1.42;;;;;;;12.64;96.94;101193.97;8335124;28;20391;-88
2023/09/25 02:40:18;;;;;;;2.85;1.40;;;;;;;12.31;96.66;101224.06;8374155;28;20036;-88
2023/09/25 02:44:18;;;;;;;2.08;1.45;;;;;;;12.17;98.06;101233.41;8328378;28;20043;-88
2023/09/25 02:48:19;;;;;;;2.22;1.42;;;;;;;11.60;99.49;101203.16;8355058;28;20044;-88
2023/09/25 02:52:20;;;;;;;2.45;1.40;;;;;;;11.46;99.33;101198.91;8353156;28;20040;-88
2023/09/25 02:56:20;;;;;;;2.55;1.92;;;;;;;11.71;100.00;101238.34;8372173;28;20128;-88
2023/09/25 03:00:21;;;;;;;3.90;1.50;;;;;;;11.66;100.00;101192.72;8346201;28;20340;-87
2023/09/25 03:04:21;;;;;;;2.90;1.83;;;;;;;11.40;100.00;101166.94;8318155;28;20037;-88
2023/09/25 03:08:22;;;;;;;3.45;1.60;;;;;;;11.77;100.00;101217.03;8329577;28;20033;-88
2023/09/25 03:12:23;;;;;;;4.85;1.80;;;;;;;11.59;100.00;101205.00;8347835;28;20093;-88
2023/09/25 03:16:24;;;;;;;3.85;1.90;;;;;;;11.62;100.00;101209.34;8346308;28;20036;-87
2023/09/25 03:20:24;;;;;;;6.30;2.17;;;;;;;11.96;100.00;101224.44;8337075;28;20036;-87
2023/09/25 03:24:25;;;;;;;2.72;1.90;;;;;;;12.03;100.00;101235.59;8338931;28;20036;-88
2023/09/25 03:28:25;;;;;;;3.78;1.77;;;;;;;12.22;100.00;101254.69;8340119;28;20048;-88
2023/09/25 03:32:26;;;;;;;4.28;1.92;;;;;;;11.96;98.37;101229.00;8335722;28;20036;-84
2023/09/25 03:36:27;;;;;;;2.47;1.70;;;;;;;11.95;99.00;101235.41;8333340;28;20063;-84
2023/09/25 03:40:28;;;;;;;4.30;2.15;;;;;;;12.20;100.00;101262.13;8360920;28;20044;-85
2023/09/25 03:44:29;;;;;;;3.13;2.05;;;;;;;12.00;100.00;101225.88;8348776;28;20044;-85
2023/09/25 03:48:30;;;;;;;5.03;1.67;;;;;;;11.97;95.94;101246.97;8345292;28;20052;-85
2023/09/25 03:52:31;;;;;;;2.35;1.60;;;;;;;11.89;98.58;101234.06;8318180;28;20715;-86
2023/09/25 03:56:32;;;;;;;3.05;1.60;;;;;;;11.93;96.34;101275.31;8315344;28;20192;-85
2023/09/25 04:00:33;;;;;;;5.50;1.65;;;;;;;11.52;97.26;101274.22;8325817;28;20045;-85
2023/09/25 04:04:33;;;;;;;2.25;1.52;;;;;;;11.52;100.00;101268.81;8326593;28;20095;-85
2023/09/25 04:08:34;;;;;;;5.90;1.92;;;;;;;11.58;99.81;101286.38;8318010;28;20538;-84
2023/09/25 04:12:35;;;;;;;2.53;1.75;;;;;;;11.47;99.93;101264.78;8359247;28;20044;-85
2023/09/25 04:16:35;;;;;;;5.07;2.67;;;;;;;11.51;100.00;101261.69;8323349;28;20086;-85
2023/09/25 04:20:38;;;;;;;3.70;1.85;;;;;;;11.55;100.00;101273.09;8345106;28;20036;-85
2023/09/25 04:24:42;;;;;;;4.50;2.50;;;;;;;11.54;100.00;101266.84;8313021;28;20041;-87
2023/09/25 04:28:42;;;;;;;3.87;2.30;;;;;;;11.55;100.00;101273.97;8346802;28;20090;-86
2023/09/25 04:32:46;;;;;;;5.47;2.42;;;;;;;11.01;100.00;101275.81;8334867;28;20271;-87
2023/09/25 04:36:46;;;;;;;5.03;2.13;;;;;;;11.12;100.00;101270.41;8359133;28;20392;-87
2023/09/25 04:40:54;;;;;;;4.18;2.10;;;;;;;11.20;100.00;101267.91;8332882;28;20029;-85
2023/09/25 04:44:55;;;;;;;5.47;2.35;;;;;;;11.13;100.00;101261.28;8294996;28;20106;-85
2023/09/25 04:48:56;;;;;;;3.65;2.20;;;;;;;11.14;100.00;101278.38;8311934;28;20060;-85
2023/09/25 04:52:56;;;;;;;4.93;2.05;;;;;;;11.07;100.00;101280.72;8326135;28;20082;-84
2023/09/25 04:56:57;;;;;;;4.88;2.45;;;;;;;11.01;100.00;101269.56;8348006;28;20123;-84
2023/09/25 05:00:57;;;;;;;5.90;2.35;;;;;;;11.13;100.00;101268.56;8340374;28;20189;-84
2023/09/25 05:04:58;;;;;;;5.70;3.20;;;;;;;11.62;100.00;101269.78;8345172;28;20554;-84
2023/09/25 05:08:59;;;;;;;6.53;3.20;;;;;;;11.96;100.00;101269.63;8344953;28;20189;-84
2023/09/25 05:12:59;;;;;;;4.57;2.95;;;;;;;12.04;100.00;101253.59;8346486;28;20041;-85
2023/09/25 05:17:00;;;;;;;9.50;3.30;;;;;;;12.05;100.00;101239.91;8348686;28;20068;-84
2023/09/25 05:21:00;;;;;;;16.00;3.03;;;;;;;12.18;100.00;101266.78;8319530;28;20586;-85
2023/09/25 05:25:01;;;;;;;6.70;2.72;;;;;;;12.19;100.00;101263.09;8347203;28;20048;-85
2023/09/25 05:29:02;;;;;;;4.82;2.92;;;;;;;12.15;100.00;101261.63;8369164;28;20091;-85
2023/09/25 05:33:03;;;;;;;7.38;2.53;;;;;;;12.12;100.00;101259.19;8383346;28;20501;-84
2023/09/25 05:37:03;;;;;;;4.18;2.33;;;;;;;12.68;96.71;101260.50;8331977;28;20492;-84
2023/09/25 05:41:04;;;;;;;6.20;2.63;;;;;;;12.20;98.98;101218.75;8329973;28;20105;-85
2023/09/25 05:45:06;;;;;;;4.85;2.22;;;;;;;12.12;100.00;101213.13;8334196;28;20040;-89
2023/09/25 05:49:07;;;;;;;4.72;2.50;;;;;;;12.47;100.00;101257.00;8359628;28;20090;-89
2023/09/25 05:53:09;;;;;;;4.70;2.38;;;;;;;12.63;100.00;101262.78;8345775;28;20036;-84
2023/09/25 05:57:32;;;;;;;3.55;2.50;;;;;;;12.25;100.00;101192.06;8339370;28;20044;-83
2023/09/25 06:01:39;;;;;;;6.07;2.58;;;;;;;12.32;99.18;101209.53;8296608;28;20127;-88
2023/09/25 06:05:40;;;;;;;2.63;2.13;;;;;;;12.45;99.73;101243.56;8347032;28;20056;-90
2023/09/25 06:09:44;;;;;;;2.95;2.25;;;;;;;12.58;99.63;101243.34;8320101;28;20110;-91
2023/09/25 06:13:44;;;;;;;4.00;2.33;;;;;;;12.59;98.60;101239.66;8377905;28;20043;-89
2023/09/25 06:17:45;;;;;;;2.90;2.28;;;;;;;12.97;97.57;101277.78;8347674;28;20043;-83
2023/09/25 06:21:46;;;;;;;2.72;1.90;;;;;;;13.07;96.67;101278.69;8347916;28;20445;-84
2023/09/25 06:25:47;;;;;;;2.90;2.28;;;;;;;13.22;95.71;101283.63;8343882;28;20028;-83
2023/09/25 06:29:48;;;;;;;4.00;2.05;;;;;;;13.23;94.31;101249.16;8346162;28;20049;-83
2023/09/25 06:33:48;;;;;;;2.63;1.90;;;;;;;13.65;92.10;101253.38;8365122;28;20071;-83
2023/09/25 06:37:52;;;;;;;3.80;2.07;;;;;;;13.83;91.06;101290.56;8344823;28;20063;-83
2023/09/25 06:41:52;;;;;;;3.72;2.13;;;;;;;13.78;91.25;101259.38;8332119;28;20033;-84
2023/09/25 06:45:56;;;;;;;8.80;2.58;;;;;;;13.79;91.55;101261.09;8351745;28;20047;-83
2023/09/25 06:49:57;;;;;;;4.55;2.03;;;;;;;14.00;91.58;101274.53;8310231;28;20140;-83
2023/09/25 06:53:57;;;;;;;3.78;2.03;;;;;;;14.50;89.75;101287.81;8330317;28;20040;-83
2023/09/25 06:57:58;;;;;;;4.25;2.17;;;;;;;14.71;87.09;101258.53;8356830;28;20049;-83
2023/09/25 07:01:58;;;;;;;2.88;1.70;;;;;;;15.03;88.12;101283.47;8330868;28;20143;-83
2023/09/25 07:05:59;;;;;;;8.40;2.10;;;;;;;15.32;86.40;101267.84;8347849;28;20064;-83
2023/09/25 07:09:59;;;;;;;2.08;1.52;;;;;;;15.40;85.15;101281.56;8331119;28;20063;-83
2023/09/25 07:14:00;;;;;;;3.00;1.73;;;;;;;15.58;83.69;101260.66;8351879;28;20039;-83
2023/09/25 07:18:01;;;;;;;3.70;1.85;;;;;;;15.68;84.88;101279.69;8351320;28;20128;-83
2023/09/25 07:22:02;;;;;;;3.17;1.50;;;;;;;15.73;83.75;101271.03;8364283;28;20063;-84
2023/09/25 07:26:08;;;;;;;2.97;1.80;;;;;;;15.99;82.97;101291.91;8366031;28;21467;-83
2023/09/25 07:30:10;;;;;;;7.80;1.67;;;;;;;15.93;82.93;101256.19;8354439;28;20029;-84
2023/09/25 07:34:11;;;;;;;4.35;1.60;;;;;;;16.22;82.65;101284.09;8369825;28;20043;-83
2023/09/25 07:38:11;;;;;;;4.07;1.95;;;;;;;16.44;81.37;101284.44;8367190;28;20041;-83
2023/09/25 07:42:13;;;;;;;5.75;1.88;;;;;;;16.62;80.88;101270.78;8372859;28;20041;-83
2023/09/25 07:46:13;;;;;;;6.50;2.25;;;;;;;17.14;78.63;101264.22;8351774;28;20097;-84
2023/09/25 07:50:14;;;;;;;5.38;1.80;;;;;;;17.12;78.95;101247.13;8359738;28;20037;-84
2023/09/25 07:54:15;;;;;;;8.05;1.77;;;;;;;17.36;76.92;101219.88;8334785;28;20029;-84
2023/09/25 07:58:15;;;;;;;3.03;1.58;;;;;;;17.60;77.95;101278.22;8347800;28;20528;-84
2023/09/25 08:02:18;;;;;;;2.72;1.38;;;;;;;17.92;75.22;101279.31;8354805;28;20044;-90
2023/09/25 08:06:19;;;;;;;4.88;1.35;;;;;;;17.92;72.72;101241.88;8340152;28;20116;-90
2023/09/25 08:10:19;;;;;;;2.35;1.17;;;;;;;18.32;70.87;101261.03;8337368;28;20051;-90
2023/09/25 08:14:20;;;;;;;4.70;1.63;;;;;;;18.43;71.33;101274.41;8373629;28;20037;-90
2023/09/25 08:18:21;;;;;;;2.33;1.48;;;;;;;18.50;69.50;101220.63;8328330;28;20045;-89
2023/09/25 08:22:21;;;;;;;2.45;1.10;;;;;;;18.50;68.64;101236.22;8338419;28;20036;-89
2023/09/25 08:26:22;;;;;;;6.88;2.00;;;;;;;18.84;69.35;101277.91;8348102;28;20025;-89
2023/09/25 08:30:23;;;;;;;5.18;1.65;;;;;;;18.72;67.82;101252.78;8334956;28;20033;-88
2023/09/25 08:34:23;;;;;;;2.95;1.30;;;;;;;18.88;68.85;101252.72;8351056;28;20449;-88
2023/09/25 08:38:24;;;;;;;2.35;1.20;;;;;;;19.14;67.21;101280.72;8353935;28;20452;-83
2023/09/25 08:42:26;;;;;;;2.33;1.13;;;;;;;19.21;66.81;101251.56;8361763;28;20049;-83
2023/09/25 08:46:28;;;;;;;4.30;1.30;;;;;;;19.61;65.56;101249.69;8322775;28;20037;-84
2023/09/25 08:50:28;;;;;;;4.32;1.67;;;;;;;19.92;64.78;101269.69;8342096;28;20041;-83
2023/09/25 08:54:29;;;;;;;2.50;1.08;;;;;;;19.98;63.15;101249.75;8344383;28;20047;-83
2023/09/25 08:58:31;;;;;;;2.67;1.40;;;;;;;20.05;63.65;101250.72;8354411;28;20040;-83
2023/09/25 09:02:32;;;;;;;4.40;1.30;;;;;;;20.04;63.10;101225.19;8348408;28;20091;-83
2023/09/25 09:06:32;;;;;;;4.07;1.55;;;;;;;20.21;61.68;101239.63;8341362;28;20043;-82
2023/09/25 09:10:35;;;;;;;2.10;1.23;;;;;;;20.85;61.64;101249.97;8384605;28;20115;-83
2023/09/25 09:14:42;;;;;;;3.17;1.08;;;;;;;21.39;59.59;101256.88;8377152;28;20037;-83
2023/09/25 09:18:42;;;;;;;1.98;1.13;;;;;;;22.68;58.58;101255.69;8359043;28;20119;-83
2023/09/25 09:22:51;;;;;;;2.15;0.93;;;;;;;23.77;53.87;101250.13;8376821;28;20047;-89
2023/09/25 09:26:57;;;;;;;2.95;1.13;;;;;;;23.76;54.02;101226.34;8379518;28;20051;-90
2023/09/25 09:31:00;;;;;;;4.53;1.35;;;;;;;24.75;52.69;101248.34;8356109;28;20286;-91
2023/09/25 09:35:05;;;;;;;2.60;0.98;;;;;;;24.90;51.81;101240.66;8352532;28;20037;-88
2023/09/25 09:39:10;;;;;;;3.60;0.90;;;;;;;24.79;50.55;101224.72;8350720;28;20158;-91
2023/09/25 09:43:11;;;;;;;2.17;1.00;;;;;;;24.66;51.07;101183.25;8337294;28;20041;-90
2023/09/25 09:47:16;;;;;;;2.58;0.85;;;;;;;25.46;50.16;101182.78;8344763;28;20063;-90
2023/09/25 09:51:18;;;;;;;2.15;0.93;;;;;;;25.72;49.75;101208.41;8338278;28;20036;-90
2023/09/25 09:55:21;;;;;;;2.85;1.02;;;;;;;25.87;49.77;101210.88;8350249;28;20063;-89
2023/09/25 09:59:21;;;;;;;2.70;1.02;;;;;;;26.36;47.78;101208.19;8350648;28;20059;-91
2023/09/25 10:03:24;;;;;;;2.25;0.90;;;;;;;26.13;47.67;101233.72;8361435;28;20037;-90
2023/09/25 10:07:29;;;;;;;2.00;0.85;;;;;;;26.17;47.78;101187.00;8343958;28;20525;-91
2023/09/25 10:11:32;;;;;;;1.42;0.60;;;;;;;26.78;48.58;101199.06;8357079;28;20651;-91
2023/09/25 10:15:33;;;;;;;2.58;1.30;;;;;;;27.36;46.33;101199.47;8369034;28;20340;-89
2023/09/25 10:23:53;;;;;;;3.58;0.90;;;;;;;27.85;46.11;101221.44;8404390;27;20959;-58
2023/09/25 10:27:54;;;;;;;;;;;;;;;27.53;47.10;101222.75;8371781;27;20557;-59
2023/09/25 10:31:54;;;;;;;2.38;1.33;;;;;;;27.46;46.82;101210.84;8363203;28;20388;-59
2023/09/25 10:36:01;;;;;;;2.95;0.98;;;;;;;27.19;46.15;101212.22;8367237;28;20037;-62
2023/09/25 10:40:03;;;;;;;1.40;0.90;;;;;;;27.74;46.82;101203.63;8366817;28;20052;-62
2023/09/25 10:44:04;;;;;;;1.83;0.90;;;;;;;28.26;45.68;101182.50;8367740;27;20049;-62
2023/09/25 10:48:06;;;;;;;1.90;0.80;;;;;;;27.61;46.37;101194.63;8365463;27;20044;-62
2023/09/25 10:52:06;;;;;;;1.77;0.70;;;;;;;27.89;45.54;101197.66;8367332;28;20564;-62
2023/09/25 10:56:08;;;;;;;3.58;0.95;;;;;;;27.68;46.04;101176.78;8366867;27;20445;-60
2023/09/25 11:00:14;;;;;;;2.55;0.80;;;;;;;27.98;45.45;101171.22;8360416;28;20403;-60
2023/09/25 11:04:15;;;;;;;3.25;0.80;;;;;;;27.40;47.21;101192.34;8362272;27;20505;-61
2023/09/25 11:08:16;;;;;;;3.45;1.15;;;;;;;28.01;46.58;101184.63;8365658;28;20036;-62
2023/09/25 11:12:16;;;;;;;2.25;0.80;;;;;;;28.47;45.22;101173.59;8362790;27;20037;-61
2023/09/25 11:16:17;;;;;;;1.40;0.90;;;;;;;27.66;46.24;101175.31;8363421;28;20484;-62
2023/09/25 11:20:19;;;;;;;1.98;0.70;;;;;;;27.93;45.11;101176.66;8364205;28;20128;-62
2023/09/25 11:24:19;;;;;;;1.80;0.90;;;;;;;27.68;45.77;101178.69;8360595;28;20533;-62
2023/09/25 11:28:23;;;;;;;2.45;1.25;;;;;;;28.68;45.31;101173.00;8396997;27;20380;-62
2023/09/25 11:32:24;;;;;;;2.88;0.82;;;;;;;29.02;44.75;101174.03;8399781;27;20127;-62
2023/09/25 11:36:25;;;;;;;1.80;0.70;;;;;;;30.00;42.41;101170.78;8372994;28;20098;-62
2023/09/25 11:40:27;;;;;;;3.17;0.95;;;;;;;30.10;43.17;101170.97;8373271;28;20083;-62
2023/09/25 11:44:28;;;;;;;5.75;1.45;;;;;;;30.24;42.79;101165.94;8371440;28;20059;-62
2023/09/25 11:48:29;;;;;;;2.83;1.00;;;;;;;30.52;40.95;101173.38;8371626;28;20048;-62
2023/09/25 11:52:29;;;;;;;1.95;0.88;;;;;;;30.36;41.33;101170.34;8405731;28;20128;-62
2023/09/25 11:56:30;;;;;;;2.30;0.90;;;;;;;30.04;38.97;101171.97;8372150;28;20529;-62
2023/09/25 12:00:31;;;;;;;2.75;0.85;;;;;;;30.75;40.25;101167.59;8369867;28;20041;-62
2023/09/25 12:04:31;;;;;;;3.53;1.00;;;;;;;30.97;39.85;101171.25;8372520;28;20329;-59
2023/09/25 12:08:33;;;;;;;1.73;0.98;;;;;;;31.36;39.97;101176.59;8373771;28;20036;-59
2023/09/25 12:12:36;;;;;;;1.52;0.52;;;;;;;31.58;39.65;101182.13;8371525;28;20060;-60
2023/09/25 12:16:37;;;;;;;2.95;1.45;;;;;;;31.22;39.89;101174.44;8371451;28;20120;-59
2023/09/25 12:20:41;;;;;;;3.28;1.33;;;;;;;30.70;39.86;101175.91;8371591;28;20044;-59
2023/09/25 12:24:42;;;;;;;2.17;0.75;;;;;;;30.93;39.48;101170.09;8369204;28;20041;-60
2023/09/25 12:28:42;;;;;;;2.33;1.00;;;;;;;30.40;41.14;101168.72;8368356;28;20037;-59
2023/09/25 12:32:45;;;;;;;9.07;1.20;;;;;;;29.13;42.58;101174.06;8369777;28;20048;-60
2023/09/25 12:36:45;;;;;;;1.70;0.80;;;;;;;28.21;42.32;101163.75;8373365;28;20437;-62
2023/09/25 12:40:46;;;;;;;2.45;0.90;;;;;;;27.99;44.04;101156.25;8373544;28;20087;-62
2023/09/25 12:44:47;;;;;;;1.45;0.85;;;;;;;27.03;46.29;101154.56;8404119;28;20089;-61
2023/09/25 12:48:47;;;;;;;2.10;0.90;;;;;;;26.68;46.75;101157.09;8370769;28;20044;-59
2023/09/25 12:52:48;;;;;;;2.40;0.90;;;;;;;26.61;46.27;101153.50;8371929;28;20039;-60
2023/09/25 12:56:48;;;;;;;1.77;0.80;;;;;;;26.27;46.88;101149.38;8371974;28;20040;-63
2023/09/25 13:00:49;;;;;;;4.90;0.95;;;;;;;25.95;46.82;101136.59;8367361;28;20363;-63
2023/09/25 13:04:49;;;;;;;2.28;0.90;;;;;;;25.91;48.10;101135.38;8371973;28;20523;-61
2023/09/25 13:08:51;;;;;;;6.03;1.00;;;;;;;25.89;48.14;101137.50;8368615;28;20110;-59
2023/09/25 13:12:52;;;;;;;1.63;0.82;;;;;;;25.92;48.54;101145.38;8367225;28;20132;-60
2023/09/25 13:16:52;;;;;;;1.88;0.80;;;;;;;26.17;47.74;101143.47;8367899;28;20039;-59
2023/09/25 13:20:53;;;;;;;3.42;0.88;;;;;;;25.91;47.72;101152.00;8364936;28;20029;-60
2023/09/25 13:24:53;;;;;;;5.25;0.80;;;;;;;25.80;47.55;101161.03;8367760;28;20060;-60
2023/09/25 13:28:56;;;;;;;2.75;0.75;;;;;;;25.70;48.16;101144.06;8366553;28;20450;-61
2023/09/25 13:32:56;;;;;;;4.03;0.93;;;;;;;25.72;47.59;101147.47;8400461;28;20043;-60
2023/09/25 13:36:57;;;;;;;4.82;1.20;;;;;;;25.71;50.23;101154.06;8365965;28;20040;-59
2023/09/25 13:40:58;;;;;;;6.25;1.10;;;;;;;25.52;49.93;101154.22;8366656;28;20438;-60
2023/09/25 13:44:58;;;;;;;2.75;0.85;;;;;;;25.64;50.67;101150.47;8369582;28;20040;-59
2023/09/25 13:49:00;;;;;;;3.30;1.08;;;;;;;25.57;51.47;101155.22;8366026;28;20041;-59
2023/09/25 13:53:00;;;;;;;3.22;0.98;;;;;;;25.49;52.43;101155.47;8366613;28;20036;-59
2023/09/25 13:57:01;;;;;;;4.95;1.40;;;;;;;25.57;53.01;101148.81;8368134;28;20033;-60
2023/09/25 14:01:05;;;;;;;2.78;0.88;;;;;;;25.40;51.35;101148.50;8365624;28;20036;-59
2023/09/25 14:05:06;;;;;;;;;;;;;;;25.48;51.72;101156.56;8369551;28;20048;-59
2023/09/25 14:09:08;;;;;;;2.22;1.00;;;;;;;25.27;51.98;101151.31;8367212;28;19923;-60
2023/09/25 14:13:09;;;;;;;2.90;1.00;;;;;;;25.16;52.20;101146.50;8368938;28;20043;-60
2023/09/25 14:17:09;;;;;;;2.40;0.98;;;;;;;25.21;51.90;101143.88;8367412;28;20044;-59
2023/09/25 14:21:10;;;;;;;2.63;1.10;;;;;;;25.12;51.58;101139.66;8362081;28;20248;-60
2023/09/25 14:25:10;;;;;;;1.52;1.00;;;;;;;25.24;51.48;101148.13;8367722;28;20037;-62
2023/09/25 14:29:11;;;;;;;2.20;1.20;;;;;;;25.15;52.05;101149.47;8363258;28;20067;-61
2023/09/25 14:33:11;;;;;;;4.50;1.50;;;;;;;25.01;54.39;101143.97;8363649;28;20037;-61
2023/09/25 14:37:11;;;;;;;4.53;1.45;;;;;;;25.27;54.87;101153.22;8368709;28;20464;-62
2023/09/25 14:41:12;;;;;;;9.85;1.50;;;;;;;24.93;54.27;101143.38;8365422;28;20466;-61
2023/09/25 14:45:15;;;;;;;7.30;1.33;;;;;;;24.86;54.22;101142.56;8369786;28;20552;-61
2023/09/25 14:49:15;;;;;;;9.40;1.40;;;;;;;24.81;53.82;101136.81;8366016;28;20040;-61
2023/09/25 14:53:16;;;;;;;4.80;0.90;;;;;;;24.67;54.48;101138.78;8365456;28;20140;-61
2023/09/25 14:57:17;;;;;;;3.45;0.70;;;;;;;24.75;53.53;101143.22;8362730;28;20106;-61
2023/09/25 15:01:17;;;;;;;1.80;1.08;;;;;;;24.62;55.17;101137.69;8371553;28;20047;-62
2023/09/25 15:05:18;;;;;;;1.83;0.90;;;;;;;24.66;54.64;101141.75;8371462;28;20086;-61
2023/09/25 15:09:18;;;;;;;1.92;1.00;;;;;;;24.64;54.01;101136.44;8375609;28;20045;-62
2023/09/25 15:13:19;;;;;;;2.72;1.00;;;;;;;24.64;54.62;101135.59;8378647;28;20041;-62
2023/09/25 15:17:20;;;;;;;2.97;1.10;;;;;;;24.71;54.19;101136.44;8372987;28;20545;-62
2023/09/25 15:21:20;;;;;;;4.07;1.20;;;;;;;24.59;54.50;101132.59;8370346;28;20076;-62
2023/09/25 15:25:21;;;;;;;5.38;1.20;;;;;;;24.62;54.04;101151.53;8377562;28;20079;-62
2023/09/25 15:29:22;;;;;;;6.07;1.05;;;;;;;24.63;54.76;101147.69;8370481;28;20032;-62
2023/09/25 15:33:22;;;;;;;1.70;0.90;;;;;;;24.48;54.29;101152.63;8368145;28;20547;-62
2023/09/25 15:37:24;;;;;;;2.33;1.10;;;;;;;24.44;53.74;101162.41;8369121;28;20116;-62
2023/09/25 15:41:24;;;;;;;1.40;0.70;;;;;;;24.54;52.73;101152.63;8363807;28;20094;-62
2023/09/25 15:45:25;;;;;;;3.50;0.90;;;;;;;24.39;53.50;101165.81;8368260;28;20040;-62
2023/09/25 15:49:25;;;;;;;4.22;1.08;;;;;;;24.30;54.18;101166.25;8366390;28;20038;-61
2023/09/25 15:53:26;;;;;;;4.32;1.02;;;;;;;24.18;54.17;101165.22;8360370;28;20414;-62
2023/09/25 15:57:27;;;;;;;1.50;0.88;;;;;;;24.09;54.46;101166.50;8369343;28;20037;-61
2023/09/25 16:01:28;;;;;;;2.22;1.13;;;;;;;24.04;55.31;101155.22;8371658;28;20037;-62
2023/09/25 16:05:28;;;;;;;2.00;1.08;;;;;;;23.98;54.67;101161.59;8370668;28;20580;-62
2023/09/25 16:09:29;;;;;;;2.47;0.75;;;;;;;23.86;56.11;101163.25;8368388;28;20070;-62
2023/09/25 16:13:29;;;;;;;3.22;1.08;;;;;;;23.80;56.54;101158.56;8364837;28;20033;-62
2023/09/25 16:17:30;;;;;;;4.60;1.00;;;;;;;23.67;56.77;101158.56;8360454;28;20558;-62
2023/09/25 16:21:31;;;;;;;2.38;0.82;;;;;;;23.67;55.85;101155.78;8367264;28;20452;-62
2023/09/25 16:25:32;;;;;;;1.80;1.20;;;;;;;23.58;56.54;101149.63;8373205;28;20452;-62
2023/09/25 16:29:32;;;;;;;4.80;1.20;;;;;;;23.50;56.60;101151.69;8364772;28;20033;-62
2023/09/25 16:33:33;;;;;;;1.35;0.70;;;;;;;23.40;57.10;101145.75;8378583;28;20106;-62
2023/09/25 16:37:33;;;;;;;4.78;1.00;;;;;;;23.32;57.88;101148.72;8372759;28;20044;-62
2023/09/25 16:41:35;;;;;;;3.33;1.23;;;;;;;23.25;57.80;101147.81;8371992;28;20040;-62
2023/09/25 16:45:37;;;;;;;2.83;0.93;;;;;;;23.23;57.54;101139.72;8370686;28;20037;-59
2023/09/25 16:49:40;;;;;;;3.97;1.00;;;;;;;23.12;58.10;101138.41;8373518;28;20036;-61
2023/09/25 16:53:41;;;;;;;1.90;1.00;;;;;;;23.08;58.20;101139.88;8377363;28;20555;-60
2023/09/25 16:57:41;;;;;;;2.22;1.05;;;;;;;22.96;58.81;101148.94;8368582;28;20482;-62
2023/09/25 17:01:42;;;;;;;3.60;1.05;;;;;;;22.71;60.00;101147.75;8367393;28;20406;-62
2023/09/25 17:05:43;;;;;;;5.50;1.08;;;;;;;22.58;59.82;101145.81;8371744;28;20033;-62
2023/09/25 17:09:43;;;;;;;3.53;1.50;;;;;;;22.46;60.39;101146.53;8369776;28;20037;-61
2023/09/25 17:13:44;;;;;;;2.90;1.30;;;;;;;22.46;59.94;101158.41;8365882;28;20468;-61
2023/09/25 17:17:44;;;;;;;4.70;1.40;;;;;;;22.25;60.84;101161.22;8370029;28;20057;-62
2023/09/25 17:21:45;;;;;;;2.92;1.02;;;;;;;22.02;61.39;101155.09;8368303;28;20256;-61
2023/09/25 17:25:47;;;;;;;5.63;1.20;;;;;;;21.80;62.02;101153.41;8376712;28;20076;-62
2023/09/25 17:29:48;;;;;;;2.88;1.10;;;;;;;21.67;62.85;101156.00;8372039;28;20410;-62
2023/09/25 17:33:49;;;;;;;7.25;1.33;;;;;;;21.44;63.54;101155.38;8363856;28;20236;-62
2023/09/25 17:37:51;;;;;;;6.57;1.60;;;;;;;21.43;63.50;101152.81;8364502;28;20521;-61
2023/09/25 17:41:51;;;;;;;4.90;1.63;;;;;;;21.21;64.42;101143.66;8367697;28;20041;-62
2023/09/25 17:45:53;;;;;;;5.38;1.48;;;;;;;21.09;64.80;101140.56;8372591;28;20036;-62
2023/09/25 17:49:53;;;;;;;2.47;1.08;;;;;;;20.91;65.86;101141.97;8376535;28;20135;-62
2023/09/25 17:53:55;;;;;;;3.10;1.45;;;;;;;20.94;65.83;101148.00;8371140;28;20037;-62
2023/09/25 17:57:55;;;;;;;1.67;0.98;;;;;;;21.03;65.04;101156.97;8364870;28;20033;-62
2023/09/25 18:01:56;;;;;;;6.47;1.45;;;;;;;20.93;65.70;101167.41;8361788;28;20058;-63
2023/09/25 18:05:57;;;;;;;3.67;1.20;;;;;;;20.82;66.09;101163.22;8372030;28;20086;-63
2023/09/25 18:09:58;;;;;;;2.10;1.25;;;;;;;20.64;67.08;101172.91;8372434;28;20378;-62
2023/09/25 18:13:59;;;;;;;3.53;1.42;;;;;;;20.45;68.22;101178.97;8373033;28;20055;-62
2023/09/25 18:18:01;;;;;;;2.58;1.20;;;;;;;20.44;68.53;101188.25;8364237;28;20086;-60
2023/09/25 18:22:02;;;;;;;4.57;1.40;;;;;;;20.28;68.85;101185.69;8361592;28;20044;-62
2023/09/25 18:26:02;;;;;;;2.75;1.15;;;;;;;20.00;69.97;101184.53;8366894;28;20104;-60
2023/09/25 18:30:03;;;;;;;6.75;1.48;;;;;;;19.95;70.26;101181.50;8365740;28;20078;-60
2023/09/25 18:34:04;;;;;;;3.08;1.60;;;;;;;19.78;70.88;101172.53;8365278;28;20105;-59
2023/09/25 18:38:05;;;;;;;3.85;1.63;;;;;;;19.72;71.46;101191.63;8357226;28;20037;-61
2023/09/25 18:42:06;;;;;;;5.63;1.90;;;;;;;19.52;72.23;101195.91;8366753;28;20632;-60
2023/09/25 18:46:06;;;;;;;5.53;1.65;;;;;;;19.40;72.78;101193.56;8390047;28;20044;-60